createdAt,value
2022-11-28T00:01:26.516Z,29.95
2022-11-28T00:03:53.684Z,31.60
2022-11-28T00:06:20.793Z,30.50
2022-11-28T00:08:48.150Z,25.98
2022-11-28T00:11:17.268Z,28.40
2022-11-28T00:13:44.902Z,20.85
2022-11-28T00:16:21.509Z,23.90
2022-11-28T00:18:49.725Z,31.23
2022-11-28T00:21:17.862Z,23.75
2022-11-28T00:23:45.983Z,29.35
2022-11-28T00:26:24.468Z,33.70
2022-11-28T00:28:51.536Z,24.20
2022-11-28T00:31:22.524Z,24.98
2022-11-28T00:33:49.592Z,30.70
2022-11-28T00:36:16.780Z,28.48
2022-11-28T00:38:43.984Z,26.38
2022-11-28T00:41:16.959Z,23.17
2022-11-28T00:43:44.907Z,31.63
2022-11-28T00:46:13.533Z,16.80
2022-11-28T00:48:41.034Z,19.45
2022-11-28T00:51:11.079Z,20.05
2022-11-28T00:53:40.580Z,23.63
2022-11-28T00:56:08.029Z,28.13
2022-11-28T00:58:38.050Z,24.13
2022-11-28T01:01:18.951Z,27.40
2022-11-28T01:03:47.194Z,23.40
2022-11-28T01:06:20.169Z,19.45
2022-11-28T01:08:46.867Z,17.50
2022-11-28T01:11:13.976Z,23.38
2022-11-28T01:13:41.056Z,18.35
2022-11-28T01:16:08.845Z,20.05
2022-11-28T01:18:35.897Z,22.65
2022-11-28T01:21:02.515Z,19.63
2022-11-28T01:23:29.144Z,17.65
2022-11-28T01:25:55.850Z,16.92
2022-11-28T01:28:22.636Z,21.38
2022-11-28T01:30:49.442Z,16.45
2022-11-28T01:33:16.247Z,22.05
2022-11-28T01:35:42.949Z,30.40
2022-11-28T01:38:09.549Z,18.08
2022-11-28T01:40:36.179Z,29.23
2022-11-28T01:43:02.781Z,23.27
2022-11-28T01:45:35.017Z,17.15
2022-11-28T01:48:03.980Z,27.77
2022-11-28T01:50:33.153Z,24.48
2022-11-28T01:53:04.785Z,15.27
2022-11-28T01:55:35.717Z,21.83
2022-11-28T01:58:02.356Z,21.30
2022-11-28T02:00:29.196Z,17.98
2022-11-28T02:03:10.565Z,22.17
2022-11-28T02:05:37.578Z,18.52
2022-11-28T02:08:04.496Z,20.17
2022-11-28T02:10:53.851Z,23.38
2022-11-28T02:13:40.994Z,22.58
2022-11-28T02:16:19.925Z,20.45
2022-11-28T02:19:08.626Z,16.27
2022-11-28T02:21:52.172Z,26.92
2022-11-28T02:24:22.004Z,13.52
2022-11-28T02:27:33.623Z,16.67
2022-11-28T02:30:02.921Z,13.65
2022-11-28T02:32:50.957Z,17.50
2022-11-28T02:35:33.500Z,17.98
2022-11-28T02:38:06.987Z,27.47
2022-11-28T02:40:52.442Z,18.27
2022-11-28T02:43:37.466Z,16.27
2022-11-28T02:46:16.806Z,17.38
2022-11-28T02:48:58.602Z,15.45
2022-11-28T02:51:37.984Z,18.67
2022-11-28T02:54:08.066Z,15.77
2022-11-28T02:56:34.912Z,14.73
2022-11-28T02:59:01.874Z,24.90
2022-11-28T03:01:36.977Z,18.42
2022-11-28T03:04:12.985Z,18.08
2022-11-28T03:06:51.680Z,18.13
2022-11-28T03:09:49.241Z,9.48
2022-11-28T03:12:36.053Z,15.82
2022-11-28T03:15:06.403Z,17.05
2022-11-28T03:17:33.213Z,16.10
2022-11-28T03:20:43.999Z,14.40
2022-11-28T03:23:21.440Z,18.20
2022-11-28T03:26:26.460Z,14.75
2022-11-28T03:29:00.737Z,13.75
2022-11-28T03:31:49.692Z,12.63
2022-11-28T03:34:20.502Z,15.35
2022-11-28T03:36:53.975Z,14.10
2022-11-28T03:39:24.570Z,12.55
2022-11-28T03:41:59.868Z,15.00
2022-11-28T03:44:30.846Z,12.25
2022-11-28T03:47:01.089Z,14.68
2022-11-28T03:49:33.750Z,11.85
2022-11-28T03:52:07.218Z,12.07
2022-11-28T03:55:09.305Z,12.10
2022-11-28T03:57:46.305Z,17.42
2022-11-28T04:00:14.317Z,10.15
2022-11-28T04:02:57.536Z,14.10
2022-11-28T04:05:26.835Z,17.65
2022-11-28T04:07:59.677Z,13.23
2022-11-28T04:10:45.205Z,12.13
2022-11-28T04:13:14.882Z,10.80
2022-11-28T04:15:59.904Z,15.05
2022-11-28T04:18:55.684Z,16.67
2022-11-28T04:21:51.187Z,11.43
2022-11-28T04:24:30.102Z,15.00
2022-11-28T04:27:05.092Z,12.95
2022-11-28T04:29:42.892Z,12.63
2022-11-28T04:32:12.252Z,11.65
2022-11-28T04:34:43.508Z,20.92
2022-11-28T04:37:14.485Z,16.92
2022-11-28T04:39:46.076Z,12.60
2022-11-28T04:42:20.852Z,13.93
2022-11-28T04:44:51.753Z,10.95
2022-11-28T04:47:18.943Z,8.38
2022-11-28T04:49:45.765Z,16.42
2022-11-28T04:52:26.372Z,12.93
2022-11-28T04:55:00.664Z,13.43
2022-11-28T04:57:33.770Z,11.02
2022-11-28T05:00:04.743Z,9.55
2022-11-28T05:02:32.505Z,13.15
2022-11-28T05:04:59.838Z,17.55
2022-11-28T05:07:26.806Z,17.48
2022-11-28T05:09:53.603Z,11.98
2022-11-28T05:12:20.482Z,13.43
2022-11-28T05:14:47.330Z,11.65
2022-11-28T05:17:13.993Z,12.38
2022-11-28T05:19:40.645Z,11.30
2022-11-28T05:22:07.331Z,16.02
2022-11-28T05:24:34.272Z,13.45
2022-11-28T05:27:01.069Z,12.77
2022-11-28T05:29:27.820Z,10.73
2022-11-28T05:31:54.803Z,11.20
2022-11-28T05:34:22.042Z,11.40
2022-11-28T05:36:56.533Z,11.82
2022-11-28T05:39:25.894Z,13.07
2022-11-28T05:41:57.174Z,11.57
2022-11-28T05:44:26.974Z,10.77
2022-11-28T05:46:54.288Z,11.65
2022-11-28T05:49:25.549Z,6.60
2022-11-28T05:51:52.281Z,9.30
2022-11-28T05:54:19.001Z,10.93
2022-11-28T05:56:45.778Z,7.20
2022-11-28T05:59:13.801Z,11.15
2022-11-28T06:01:40.667Z,9.75
2022-11-28T06:04:07.394Z,12.55
2022-11-28T06:06:35.718Z,11.40
2022-11-28T06:09:03.389Z,13.68
2022-11-28T06:11:31.675Z,9.30
2022-11-28T06:13:58.324Z,14.32
2022-11-28T06:16:27.695Z,11.43
2022-11-28T06:18:55.816Z,10.23
2022-11-28T06:21:23.453Z,12.02
2022-11-28T06:23:50.217Z,10.13
2022-11-28T06:26:19.840Z,13.05
2022-11-28T06:28:48.025Z,8.50
2022-11-28T06:31:28.463Z,10.32
2022-11-28T06:33:55.974Z,10.15
2022-11-28T06:36:22.821Z,7.95
2022-11-28T06:38:49.566Z,12.23
2022-11-28T06:41:19.575Z,11.68
2022-11-28T06:43:46.577Z,10.65
2022-11-28T06:46:16.402Z,8.65
2022-11-28T06:48:44.132Z,11.02
2022-11-28T06:51:11.682Z,8.38
2022-11-28T06:53:38.741Z,8.77
2022-11-28T06:56:07.448Z,10.27
2022-11-28T06:58:35.016Z,10.05
2022-11-28T07:01:11.950Z,10.88
2022-11-28T07:03:39.589Z,11.00
2022-11-28T07:06:07.296Z,12.65
2022-11-28T07:08:34.894Z,12.27
2022-11-28T07:11:11.969Z,9.73
2022-11-28T07:13:39.807Z,12.57
2022-11-28T07:16:07.538Z,15.93
2022-11-28T07:18:34.937Z,13.35
2022-11-28T07:21:01.975Z,11.18
2022-11-28T07:23:28.588Z,11.05
2022-11-28T07:26:03.622Z,8.25
2022-11-28T07:28:31.575Z,8.65
2022-11-28T07:31:11.083Z,10.85
2022-11-28T07:33:39.622Z,10.98
2022-11-28T07:36:10.865Z,8.25
2022-11-28T07:38:37.534Z,6.07
2022-11-28T07:41:09.679Z,11.05
2022-11-28T07:43:36.833Z,8.30
2022-11-28T07:46:06.752Z,12.75
2022-11-28T07:48:34.363Z,11.38
2022-11-28T07:51:06.189Z,7.57
2022-11-28T07:53:32.826Z,7.68
2022-11-28T07:56:07.858Z,9.60
2022-11-28T07:58:36.113Z,9.18
2022-11-28T08:01:13.474Z,8.50
2022-11-28T08:03:40.639Z,10.50
2022-11-28T08:06:08.542Z,8.48
2022-11-28T08:08:35.892Z,10.70
2022-11-28T08:11:04.861Z,7.75
2022-11-28T08:13:31.648Z,8.98
2022-11-28T08:15:58.541Z,11.68
2022-11-28T08:18:25.278Z,10.25
2022-11-28T08:20:51.964Z,12.27
2022-11-28T08:23:18.580Z,9.07
2022-11-28T08:25:45.397Z,8.95
2022-11-28T08:28:12.036Z,9.63
2022-11-28T08:30:39.111Z,9.15
2022-11-28T08:33:05.828Z,8.55
2022-11-28T08:35:32.519Z,9.07
2022-11-28T08:38:02.016Z,9.00
2022-11-28T08:40:29.231Z,9.73
2022-11-28T08:42:55.936Z,8.40
2022-11-28T08:45:22.662Z,11.20
2022-11-28T08:47:49.458Z,9.52
2022-11-28T08:50:16.527Z,13.43
2022-11-28T08:52:43.183Z,16.55
2022-11-28T08:55:10.145Z,9.50
2022-11-28T08:57:36.924Z,11.57
2022-11-28T09:00:04.480Z,9.27
2022-11-28T09:02:31.150Z,11.63
2022-11-28T09:04:57.795Z,10.55
2022-11-28T09:07:24.625Z,12.00
2022-11-28T09:09:51.365Z,8.85
2022-11-28T09:12:18.021Z,7.72
2022-11-28T09:14:44.908Z,8.68
2022-11-28T09:17:11.830Z,7.38
2022-11-28T09:19:39.136Z,12.13
2022-11-28T09:22:05.896Z,9.07
2022-11-28T09:24:32.565Z,8.85
2022-11-28T09:26:59.327Z,8.82
2022-11-28T09:29:26.883Z,6.07
2022-11-28T09:31:53.667Z,13.02
2022-11-28T09:34:20.480Z,10.45
2022-11-28T09:36:47.225Z,8.60
2022-11-28T09:39:14.026Z,7.72
2022-11-28T09:41:53.102Z,7.35
2022-11-28T09:44:25.200Z,9.73
2022-11-28T09:46:58.514Z,8.13
2022-11-28T09:49:41.083Z,9.77
2022-11-28T09:52:35.790Z,8.82
2022-11-28T09:55:18.546Z,29.88
2022-11-28T09:57:51.027Z,12.73
2022-11-28T10:00:26.909Z,10.13
2022-11-28T10:03:14.682Z,10.43
2022-11-28T10:06:00.741Z,9.23
2022-11-28T10:08:46.030Z,12.23
2022-11-28T10:11:39.032Z,11.90
2022-11-28T10:14:30.689Z,7.32
2022-11-28T10:17:34.646Z,12.60
2022-11-28T10:22:40.611Z,8.05
2022-11-28T10:25:17.281Z,9.35
2022-11-28T10:27:44.499Z,16.52
2022-11-28T10:30:34.729Z,11.27
2022-11-28T10:33:14.156Z,14.00
2022-11-28T10:35:53.905Z,10.23
2022-11-28T10:38:26.663Z,13.57
2022-11-28T10:41:00.219Z,9.02
2022-11-28T10:44:24.153Z,14.32
2022-11-28T10:46:51.445Z,8.27
2022-11-28T10:49:34.269Z,10.73
2022-11-28T10:52:21.821Z,13.73
2022-11-28T10:55:15.513Z,10.45
2022-11-28T11:00:23.136Z,13.15
2022-11-28T11:02:57.711Z,17.48
2022-11-28T11:05:26.190Z,14.43
2022-11-28T11:07:59.479Z,18.50
2022-11-28T11:10:42.187Z,14.10
2022-11-28T11:13:16.398Z,13.00
2022-11-28T11:15:46.551Z,12.75
2022-11-28T11:18:25.880Z,13.73
2022-11-28T11:20:52.808Z,12.27
2022-11-28T11:23:22.275Z,10.45
2022-11-28T11:25:58.388Z,10.13
2022-11-28T11:28:46.366Z,9.32
2022-11-28T11:31:24.781Z,12.20
2022-11-28T11:34:01.063Z,11.40
2022-11-28T11:36:34.302Z,12.43
2022-11-28T11:41:40.091Z,12.93
2022-11-28T11:44:15.806Z,12.60
2022-11-28T11:47:06.826Z,8.93
2022-11-28T11:49:33.567Z,15.45
2022-11-28T11:52:23.016Z,8.15
2022-11-28T11:54:58.938Z,10.80
2022-11-28T11:57:39.542Z,8.68
2022-11-28T12:00:07.152Z,7.60
2022-11-28T12:02:37.240Z,6.85
2022-11-28T12:05:16.933Z,8.35
2022-11-28T12:07:56.069Z,9.52
2022-11-28T12:10:26.699Z,6.28
2022-11-28T12:12:53.880Z,8.93
2022-11-28T12:15:51.179Z,11.45
2022-11-28T12:18:23.780Z,8.30
2022-11-28T12:20:59.741Z,7.47
2022-11-28T12:23:38.418Z,9.15
2022-11-28T12:26:28.663Z,6.90
2022-11-28T12:29:24.174Z,14.18
2022-11-28T12:32:12.635Z,11.27
2022-11-28T12:34:58.134Z,10.68
2022-11-28T12:41:03.933Z,7.57
2022-11-28T12:44:25.194Z,10.95
2022-11-28T12:47:30.552Z,14.45
2022-11-28T12:50:20.343Z,8.55
2022-11-28T12:52:56.432Z,13.07
2022-11-28T12:55:26.357Z,10.93
2022-11-28T12:58:12.193Z,7.88
2022-11-28T13:01:08.206Z,10.98
2022-11-28T13:03:35.112Z,6.45
2022-11-28T13:06:08.017Z,10.10
2022-11-28T13:08:48.198Z,11.32
2022-11-28T13:11:18.713Z,12.45
2022-11-28T13:14:09.836Z,6.10
2022-11-28T13:17:11.366Z,8.82
2022-11-28T13:19:51.709Z,7.60
2022-11-28T13:22:29.037Z,6.13
2022-11-28T13:25:17.374Z,6.65
2022-11-28T13:27:54.918Z,10.65
2022-11-28T13:30:31.301Z,10.02
2022-11-28T13:33:24.224Z,7.40
2022-11-28T13:35:52.398Z,8.83
2022-11-28T13:38:36.210Z,11.15
2022-11-28T13:41:28.807Z,4.28
2022-11-28T13:44:15.635Z,7.93
2022-11-28T13:46:44.773Z,8.93
2022-11-28T13:49:25.709Z,8.23
2022-11-28T13:52:17.663Z,10.50
2022-11-28T13:54:51.749Z,7.35
2022-11-28T13:57:35.908Z,6.93
2022-11-28T14:00:22.880Z,10.52
2022-11-28T14:03:00.256Z,5.32
2022-11-28T14:05:41.724Z,9.60
2022-11-28T14:08:09.350Z,9.43
2022-11-28T14:10:48.743Z,7.95
2022-11-28T14:13:40.860Z,7.43
2022-11-28T14:16:45.413Z,10.18
2022-11-28T14:19:25.607Z,6.15
2022-11-28T14:22:04.546Z,7.15
2022-11-28T14:24:52.585Z,6.32
2022-11-28T14:27:31.591Z,9.35
2022-11-28T14:29:59.587Z,10.18
2022-11-28T14:32:41.604Z,11.15
2022-11-28T14:35:55.802Z,8.25
2022-11-28T14:41:15.269Z,7.82
2022-11-28T14:43:46.370Z,8.15
2022-11-28T14:46:16.102Z,9.13
2022-11-28T14:49:02.747Z,6.95
2022-11-28T14:51:47.724Z,7.95
2022-11-28T14:54:23.355Z,14.02
2022-11-28T14:56:55.288Z,9.10
2022-11-28T14:59:31.476Z,10.40
2022-11-28T15:02:13.247Z,10.63
2022-11-28T15:05:13.866Z,13.18
2022-11-28T15:07:49.635Z,13.35
2022-11-28T15:10:41.381Z,9.25
2022-11-28T15:13:48.162Z,10.52
2022-11-28T15:16:17.461Z,10.68
2022-11-28T15:18:50.724Z,12.35
2022-11-28T15:23:46.935Z,11.82
2022-11-28T15:26:28.450Z,9.25
2022-11-28T15:29:26.711Z,12.45
2022-11-28T15:31:55.772Z,11.50
2022-11-28T15:34:31.811Z,11.25
2022-11-28T15:37:01.061Z,11.18
2022-11-28T15:39:35.196Z,12.25
2022-11-28T15:42:04.899Z,12.50
2022-11-28T15:44:31.816Z,9.63
2022-11-28T15:46:58.784Z,9.15
2022-11-28T15:49:31.977Z,12.23
2022-11-28T15:54:41.265Z,11.77
2022-11-28T15:57:28.512Z,9.35
2022-11-28T15:59:56.607Z,10.52
2022-11-28T16:02:31.894Z,10.43
2022-11-28T16:05:08.908Z,12.82
2022-11-28T16:07:41.393Z,8.85
2022-11-28T16:10:17.565Z,10.45
2022-11-28T16:12:44.845Z,14.25
2022-11-28T16:15:18.397Z,8.27
2022-11-28T16:17:45.183Z,9.43
2022-11-28T16:20:25.154Z,16.23
2022-11-28T16:22:59.579Z,12.55
2022-11-28T16:25:27.459Z,9.82
2022-11-28T16:27:57.337Z,10.20
2022-11-28T16:30:48.378Z,11.23
2022-11-28T16:33:38.189Z,11.45
2022-11-28T16:36:19.435Z,8.88
2022-11-28T16:38:48.346Z,9.68
2022-11-28T16:41:25.758Z,10.68
2022-11-28T16:44:00.337Z,12.38
2022-11-28T16:46:35.821Z,13.10
2022-11-28T16:49:03.443Z,9.48
2022-11-28T16:51:33.647Z,10.93
2022-11-28T16:54:21.286Z,16.77
2022-11-28T16:56:48.069Z,18.42
2022-11-28T16:59:20.341Z,13.52
2022-11-28T17:01:51.853Z,10.77
2022-11-28T17:04:25.118Z,15.73
2022-11-28T17:09:19.964Z,16.67
2022-11-28T17:12:25.078Z,17.40
2022-11-28T17:14:52.014Z,11.90
2022-11-28T17:17:20.604Z,14.70
2022-11-28T17:19:47.496Z,12.93
2022-11-28T17:22:19.898Z,12.13
2022-11-28T17:24:48.036Z,10.80
2022-11-28T17:27:15.482Z,13.02
2022-11-28T17:29:42.787Z,14.18
2022-11-28T17:32:14.003Z,11.20
2022-11-28T17:34:42.337Z,14.27
2022-11-28T17:37:10.165Z,16.08
2022-11-28T17:39:36.913Z,13.82
2022-11-28T17:42:04.714Z,16.17
2022-11-28T17:44:36.431Z,14.20
2022-11-28T17:47:03.945Z,14.38
2022-11-28T17:49:31.189Z,10.48
2022-11-28T17:51:58.346Z,17.88
2022-11-28T17:54:26.707Z,20.50
2022-11-28T17:56:54.512Z,14.40
2022-11-28T17:59:23.129Z,13.40
2022-11-28T18:01:50.200Z,15.07
2022-11-28T18:04:17.293Z,16.70
2022-11-28T18:06:45.951Z,18.80
2022-11-28T18:09:13.844Z,19.00
2022-11-28T18:11:41.624Z,17.42
2022-11-28T18:14:08.921Z,20.92
2022-11-28T18:16:36.386Z,15.75
2022-11-28T18:19:04.296Z,16.92
2022-11-28T18:21:31.986Z,15.80
2022-11-28T18:23:58.634Z,21.08
2022-11-28T18:26:26.618Z,22.52
2022-11-28T18:28:54.120Z,20.33
2022-11-28T18:31:24.893Z,18.02
2022-11-28T18:33:57.410Z,18.45
2022-11-28T18:36:29.214Z,18.23
2022-11-28T18:38:57.935Z,17.88
2022-11-28T18:41:24.744Z,21.08
2022-11-28T18:44:02.592Z,23.30
2022-11-28T18:46:30.318Z,19.52
2022-11-28T18:48:57.604Z,19.55
2022-11-28T18:51:26.960Z,25.35
2022-11-28T18:53:56.959Z,21.17
2022-11-28T18:56:25.488Z,23.25
2022-11-28T18:58:53.742Z,22.52
2022-11-28T19:01:25.112Z,22.30
2022-11-28T19:03:54.405Z,21.35
2022-11-28T19:06:22.442Z,21.42
2022-11-28T19:08:54.166Z,18.33
2022-11-28T19:11:21.200Z,20.65
2022-11-28T19:13:48.862Z,17.02
2022-11-28T19:16:21.258Z,18.45
2022-11-28T19:18:49.137Z,19.80
2022-11-28T19:21:18.329Z,18.58
2022-11-28T19:23:47.241Z,19.50
2022-11-28T19:26:16.673Z,18.10
2022-11-28T19:28:43.733Z,19.63
2022-11-28T19:31:16.381Z,16.60
2022-11-28T19:33:43.674Z,18.67
2022-11-28T19:36:12.868Z,18.65
2022-11-28T19:38:40.593Z,14.77
2022-11-28T19:41:09.388Z,17.35
2022-11-28T19:43:36.506Z,15.85
2022-11-28T19:46:03.335Z,14.68
2022-11-28T19:48:32.355Z,18.63
2022-11-28T19:50:59.170Z,19.85
2022-11-28T19:53:26.273Z,18.02
2022-11-28T19:55:54.109Z,17.38
2022-11-28T19:58:21.521Z,15.50
2022-11-28T20:00:48.422Z,12.18
2022-11-28T20:03:15.125Z,12.90
2022-11-28T20:05:42.406Z,13.13
2022-11-28T20:08:09.148Z,11.98
2022-11-28T20:10:40.124Z,12.10
2022-11-28T20:13:07.007Z,13.25
2022-11-28T20:15:37.272Z,15.32
2022-11-28T20:18:03.995Z,11.35
2022-11-28T20:20:30.783Z,13.98
2022-11-28T20:22:57.649Z,14.75
2022-11-28T20:25:24.258Z,13.93
2022-11-28T20:27:51.387Z,11.65
2022-11-28T20:30:18.676Z,12.82
2022-11-28T20:32:45.428Z,11.80
2022-11-28T20:35:12.285Z,12.23
2022-11-28T20:37:39.395Z,11.35
2022-11-28T20:40:07.086Z,10.85
2022-11-28T20:42:39.357Z,10.68
2022-11-28T20:45:07.212Z,11.27
2022-11-28T20:47:34.902Z,11.48
2022-11-28T20:50:02.427Z,11.70
2022-11-28T20:52:29.185Z,11.98
2022-11-28T20:54:56.006Z,12.57
2022-11-28T20:57:22.785Z,12.68
2022-11-28T20:59:49.596Z,13.18
2022-11-28T21:02:16.333Z,12.52
2022-11-28T21:04:43.049Z,10.95
2022-11-28T21:07:09.706Z,9.90
2022-11-28T21:09:36.361Z,10.60
2022-11-28T21:12:03.007Z,10.98
2022-11-28T21:14:29.706Z,13.88
2022-11-28T21:16:57.710Z,9.90
2022-11-28T21:19:24.788Z,11.48
2022-11-28T21:21:51.405Z,14.27
2022-11-28T21:24:18.227Z,13.98
2022-11-28T21:26:51.078Z,12.93
2022-11-28T21:29:20.067Z,12.52
2022-11-28T21:31:47.049Z,13.27
2022-11-28T21:34:15.687Z,16.23
2022-11-28T21:36:43.604Z,13.38
2022-11-28T21:39:14.269Z,11.75
2022-11-28T21:41:40.945Z,12.93
2022-11-28T21:44:07.809Z,12.35
2022-11-28T21:46:34.561Z,13.68
2022-11-28T21:49:01.980Z,11.10
2022-11-28T21:51:28.923Z,11.55
2022-11-28T21:53:57.766Z,12.55
2022-11-28T21:56:25.054Z,10.63
2022-11-28T21:58:52.236Z,13.32
2022-11-28T22:01:20.425Z,12.52
2022-11-28T22:03:47.457Z,12.20
2022-11-28T22:06:21.395Z,11.77
2022-11-28T22:08:48.827Z,8.18
2022-11-28T22:11:16.082Z,12.55
2022-11-28T22:13:45.442Z,8.43
2022-11-28T22:16:24.929Z,9.70
2022-11-28T22:18:53.863Z,9.02
2022-11-28T22:21:50.576Z,11.23
2022-11-28T22:24:08.799Z,8.52
2022-11-28T22:26:35.485Z,9.02
2022-11-28T22:29:04.160Z,11.63
2022-11-28T22:31:32.131Z,11.10
2022-11-28T22:33:59.299Z,10.05
2022-11-28T22:36:26.054Z,10.13
2022-11-28T22:38:57.537Z,11.20
2022-11-28T22:41:28.829Z,9.52
2022-11-28T22:43:57.984Z,8.30
2022-11-28T22:46:24.945Z,7.80
2022-11-28T22:48:52.105Z,10.70
2022-11-28T22:51:25.053Z,10.23
2022-11-28T22:53:59.744Z,11.13
2022-11-28T22:56:27.922Z,12.93
2022-11-28T22:58:54.956Z,8.70
2022-11-28T23:01:24.425Z,10.75
2022-11-28T23:03:52.045Z,8.77
2022-11-28T23:06:22.274Z,10.45
2022-11-28T23:08:49.866Z,6.68
2022-11-28T23:11:19.853Z,9.13
2022-11-28T23:13:50.644Z,8.77
2022-11-28T23:16:19.284Z,8.63
2022-11-28T23:18:47.968Z,7.85
2022-11-28T23:21:15.547Z,8.35
2022-11-28T23:23:44.192Z,5.38
2022-11-28T23:26:13.589Z,10.02
2022-11-28T23:28:40.971Z,6.25
2022-11-28T23:31:14.648Z,6.95
2022-11-28T23:33:42.084Z,9.23
2022-11-28T23:36:21.424Z,8.30
2022-11-28T23:38:50.461Z,7.43
2022-11-28T23:41:17.483Z,6.03
2022-11-28T23:43:44.558Z,7.55
2022-11-28T23:46:12.503Z,7.45
2022-11-28T23:48:39.567Z,5.72
2022-11-28T23:51:07.018Z,10.38
2022-11-28T23:53:34.438Z,5.45
2022-11-28T23:56:06.829Z,8.48
2022-11-28T23:58:36.409Z,5.70
